createdAt,value
2023-05-24T00:05:31.992Z,3.00
2023-05-24T00:11:35.445Z,2.70
2023-05-24T00:17:41.628Z,2.78
2023-05-24T00:23:45.585Z,2.72
2023-05-24T00:29:49.205Z,3.33
2023-05-24T00:35:56.475Z,3.25
2023-05-24T00:41:59.878Z,2.90
2023-05-24T00:48:03.690Z,2.80
2023-05-24T00:54:08.893Z,3.50
2023-05-24T01:00:13.541Z,2.92
2023-05-24T01:06:17.721Z,2.90
2023-05-24T01:12:27.355Z,3.08
2023-05-24T01:18:33.278Z,2.58
2023-05-24T01:24:43.543Z,2.72
2023-05-24T01:30:48.584Z,2.67
2023-05-24T01:36:52.172Z,2.67
2023-05-24T01:43:01.393Z,2.88
2023-05-24T01:49:08.918Z,3.28
2023-05-24T01:55:13.431Z,2.92
2023-05-24T02:01:16.962Z,2.70
2023-05-24T02:07:22.139Z,3.15
2023-05-24T02:13:26.258Z,3.20
2023-05-24T02:19:29.857Z,3.38
2023-05-24T02:25:35.034Z,3.25
2023-05-24T02:31:38.705Z,3.10
2023-05-24T02:37:42.610Z,3.50
2023-05-24T02:43:47.454Z,3.50
2023-05-24T02:49:51.694Z,3.15
2023-05-24T02:55:55.217Z,3.10
2023-05-24T03:02:00.083Z,3.10
2023-05-24T03:08:04.274Z,3.47
2023-05-24T03:14:10.088Z,3.42
2023-05-24T03:20:16.024Z,3.60
2023-05-24T03:26:20.688Z,3.53
2023-05-24T03:32:24.249Z,3.53
2023-05-24T03:38:29.102Z,2.97
2023-05-24T03:44:32.511Z,3.15
2023-05-24T03:50:36.076Z,3.20
2023-05-24T03:56:40.970Z,3.30
2023-05-24T04:02:44.550Z,3.15
2023-05-24T04:08:48.106Z,3.42
2023-05-24T04:14:52.947Z,3.47
2023-05-24T04:20:56.506Z,3.47
2023-05-24T04:26:59.927Z,4.20
2023-05-24T04:33:05.551Z,3.45
2023-05-24T04:39:09.080Z,3.75
2023-05-24T04:45:12.847Z,3.70
2023-05-24T04:51:17.775Z,3.60
2023-05-24T04:57:21.322Z,4.68
2023-05-24T05:03:26.397Z,4.25
2023-05-24T05:09:31.326Z,4.10
2023-05-24T05:15:34.918Z,4.13
2023-05-24T05:21:39.880Z,4.70
2023-05-24T05:27:44.690Z,5.07
2023-05-24T05:33:48.227Z,5.32
2023-05-24T05:39:51.776Z,4.53
2023-05-24T05:45:56.711Z,4.72
2023-05-24T05:52:00.282Z,5.00
2023-05-24T05:58:03.693Z,5.03
2023-05-24T06:04:08.866Z,4.13
2023-05-24T06:10:13.226Z,4.88
2023-05-24T06:16:17.209Z,5.65
2023-05-24T06:22:23.045Z,5.32
2023-05-24T06:28:26.536Z,4.00
2023-05-24T06:34:30.050Z,3.75
2023-05-24T06:40:34.816Z,4.10
2023-05-24T06:46:38.704Z,4.13
2023-05-24T06:52:42.474Z,5.20
2023-05-24T06:58:47.651Z,3.63
2023-05-24T07:04:51.908Z,4.15
2023-05-24T07:10:55.900Z,4.38
2023-05-24T07:17:00.764Z,3.70
2023-05-24T07:23:04.715Z,4.72
2023-05-24T07:29:08.657Z,6.27
2023-05-24T07:35:14.223Z,4.60
2023-05-24T07:41:17.673Z,4.45
2023-05-24T07:47:21.145Z,3.90
2023-05-24T07:53:27.068Z,3.35
2023-05-24T07:59:30.561Z,3.95
2023-05-24T08:05:34.159Z,4.60
2023-05-24T08:11:39.291Z,4.15
2023-05-24T08:17:43.034Z,4.15
2023-05-24T08:23:46.500Z,2.83
2023-05-24T08:29:51.333Z,3.78
2023-05-24T08:35:54.775Z,4.95
2023-05-24T08:48:08.546Z,3.88
2023-05-24T08:54:13.857Z,3.47
2023-05-24T09:00:18.147Z,2.13
2023-05-24T09:06:25.388Z,2.97
2023-05-24T09:12:37.440Z,2.60
2023-05-24T09:18:42.957Z,3.17
2023-05-24T09:24:49.422Z,3.25
2023-05-24T09:31:06.350Z,4.13
2023-05-24T09:37:16.657Z,2.47
2023-05-24T09:43:23.696Z,2.45
2023-05-24T09:49:29.331Z,3.90
2023-05-24T09:55:37.238Z,2.88
2023-05-24T10:01:42.236Z,3.08
2023-05-24T10:07:46.113Z,3.30
2023-05-24T10:13:49.976Z,3.20
2023-05-24T10:19:55.325Z,3.20
2023-05-24T10:26:06.575Z,3.17
2023-05-24T10:32:10.895Z,2.47
2023-05-24T10:38:15.745Z,3.55
2023-05-24T10:44:21.286Z,4.25
2023-05-24T10:50:25.310Z,4.57
2023-05-24T10:56:30.590Z,3.17
2023-05-24T11:02:36.905Z,2.92
2023-05-24T11:08:45.090Z,2.67
2023-05-24T11:14:51.397Z,3.25
2023-05-24T11:20:56.524Z,2.67
2023-05-24T11:27:00.377Z,3.40
2023-05-24T11:33:05.399Z,3.15
2023-05-24T11:39:09.883Z,2.38
2023-05-24T11:45:13.983Z,1.90
2023-05-24T11:51:19.080Z,2.38
2023-05-24T11:57:27.743Z,2.45
2023-05-24T12:03:31.370Z,2.58
2023-05-24T12:09:36.336Z,3.40
2023-05-24T12:15:40.030Z,3.28
2023-05-24T12:21:43.641Z,3.45
2023-05-24T12:27:48.801Z,3.42
2023-05-24T12:33:54.331Z,2.90
2023-05-24T12:39:58.072Z,2.50
2023-05-24T12:46:03.458Z,3.13
2023-05-24T12:52:07.661Z,3.43
2023-05-24T12:58:14.721Z,3.17
2023-05-24T13:04:21.067Z,3.47
2023-05-24T13:10:24.891Z,3.35
2023-05-24T13:16:28.445Z,4.07
2023-05-24T13:22:33.297Z,3.35
2023-05-24T13:28:38.225Z,3.17
2023-05-24T13:34:42.717Z,3.35
2023-05-24T13:40:48.016Z,3.50
2023-05-24T13:46:52.285Z,3.28
2023-05-24T13:52:56.191Z,3.92
2023-05-24T13:59:01.646Z,3.60
2023-05-24T14:05:21.568Z,4.50
2023-05-24T14:11:31.790Z,3.05
2023-05-24T14:17:37.340Z,4.40
2023-05-24T14:23:41.090Z,4.10
2023-05-24T14:29:44.567Z,4.43
2023-05-24T14:35:49.812Z,4.30
2023-05-24T14:41:53.251Z,4.57
2023-05-24T14:47:57.680Z,3.53
2023-05-24T14:54:03.000Z,3.95
2023-05-24T15:00:06.901Z,3.83
2023-05-24T15:06:10.441Z,4.60
2023-05-24T15:12:15.621Z,4.30
2023-05-24T15:18:19.146Z,4.05
2023-05-24T15:24:22.597Z,4.57
2023-05-24T15:30:27.453Z,3.85
2023-05-24T15:36:31.029Z,5.50
2023-05-24T15:42:34.522Z,4.15
2023-05-24T15:48:39.353Z,4.47
2023-05-24T15:54:42.811Z,5.35
2023-05-24T16:00:46.437Z,4.85
2023-05-24T16:06:52.055Z,4.80
2023-05-24T16:12:56.128Z,4.13
2023-05-24T16:18:59.695Z,4.95
2023-05-24T16:25:04.564Z,4.95
2023-05-24T16:31:08.236Z,4.30
2023-05-24T16:37:11.721Z,4.95
2023-05-24T16:43:16.774Z,4.22
2023-05-24T16:49:20.352Z,3.90
2023-05-24T16:55:24.041Z,3.85
2023-05-24T17:01:28.953Z,3.60
2023-05-24T17:07:33.901Z,2.67
2023-05-24T17:13:37.425Z,2.80
2023-05-24T17:19:42.325Z,2.85
2023-05-24T17:25:46.120Z,2.63
2023-05-24T17:31:49.621Z,2.70
2023-05-24T17:37:54.792Z,2.50
2023-05-24T17:43:58.256Z,2.50
2023-05-24T17:50:01.731Z,2.22
2023-05-24T17:56:06.988Z,2.38
2023-05-24T18:02:10.469Z,2.30
2023-05-24T18:08:14.035Z,2.15
2023-05-24T18:14:19.083Z,2.63
2023-05-24T18:20:23.793Z,2.30
2023-05-24T18:26:27.348Z,2.28
2023-05-24T18:32:32.257Z,2.13
2023-05-24T18:38:36.207Z,1.95
2023-05-24T18:44:40.030Z,2.08
2023-05-24T18:50:44.957Z,1.85
2023-05-24T18:56:48.512Z,2.85
2023-05-24T19:02:52.145Z,2.05
2023-05-24T19:08:57.135Z,2.38
2023-05-24T19:15:02.802Z,2.47
2023-05-24T19:21:06.270Z,2.50
2023-05-24T19:27:11.186Z,2.28
2023-05-24T19:33:14.672Z,2.00
2023-05-24T19:39:18.552Z,2.13
2023-05-24T19:45:23.809Z,2.38
2023-05-24T19:51:27.361Z,2.85
2023-05-24T19:57:30.861Z,2.53
2023-05-24T20:03:35.816Z,2.15
2023-05-24T20:09:45.635Z,2.10
2023-05-24T20:15:49.296Z,2.42
2023-05-24T20:21:54.335Z,2.30
2023-05-24T20:27:58.087Z,2.60
2023-05-24T20:34:01.678Z,2.67
2023-05-24T20:40:07.489Z,2.58
2023-05-24T20:46:11.644Z,2.78
2023-05-24T20:52:16.267Z,2.70
2023-05-24T20:58:21.350Z,2.85
2023-05-24T21:04:24.855Z,2.30
2023-05-24T21:10:28.515Z,2.78
2023-05-24T21:16:33.751Z,2.65
2023-05-24T21:22:37.316Z,2.67
2023-05-24T21:28:41.258Z,2.67
2023-05-24T21:34:46.022Z,2.85
2023-05-24T21:40:49.534Z,2.55
2023-05-24T21:46:53.027Z,3.13
2023-05-24T21:52:57.872Z,2.95
2023-05-24T21:59:01.282Z,3.08
2023-05-24T22:05:06.289Z,2.72
2023-05-24T22:11:11.149Z,3.15
2023-05-24T22:17:14.959Z,3.05
2023-05-24T22:23:18.354Z,2.80
2023-05-24T22:29:23.222Z,3.28
2023-05-24T22:35:26.701Z,2.90
2023-05-24T22:41:30.472Z,3.10
2023-05-24T22:47:35.360Z,3.15
2023-05-24T22:53:39.740Z,3.17
2023-05-24T22:59:45.893Z,2.97
2023-05-24T23:05:53.659Z,3.58
2023-05-24T23:11:58.690Z,3.20
2023-05-24T23:18:02.959Z,3.40
2023-05-24T23:24:14.250Z,3.47
2023-05-24T23:30:17.849Z,3.40
2023-05-24T23:36:21.359Z,3.50
2023-05-24T23:42:26.353Z,4.18
2023-05-24T23:48:30.011Z,3.60
2023-05-24T23:54:34.052Z,4.13
